Cartter, Illinois
Current Conditions -  °F | °C
As of 12:35 PM on Saturday 25 Oct 2014 (Local Time) from KSLO Reporting Station
Clear Clear  
Wind Chill: 76°   Ceiling: Unl
Heat Index: 76°   Visibility: 10mi
Dew Point: 60°   Wind: 7mph
Humidity: 57%   Direction: 330°NNW
Pressure: 30.02"   Gusts: NA
Location:  38.5187°N, 88.8115°W
Report Text: KSLO 251735Z AUTO 33006KT 10SM CLR 24/15 A3002 RMK AO2 T02440154
Loading
Personal Weather Stations






























Interactive Weather Map
Tropical Storm Tracking
New forecast layout! Learn more

10-Day Weather Forecast

Advertisements
Track Severe Weather on mobile